• Join FlightAware (Why Join?)
  • Login
  • US Flag 
09:22PM EDT


 

Airport Tracker/Info


-or-


 

Live Flight TrackerFlight Track Log ✈ FLG3776 ✈ 30-Apr-2013 ✈ KMSP - KAZO

Flight Track Log - Related Links

Times and Time Zones

All times are in EDT time to prevent confusion due to time zone crossing. See the FLG3776 flight status page for this flight to view local times or setup timezone preferences in your user account.

Time Position Orientation Groundspeed Altitude Reporting Facility
EDT Latitude Longitude Course Direction KTS MPH feet Rate Location/Type
09:06PM 44.9333 -93.2167 117° Southeast 193 222 3,700  Level Minneapolis TRACON
09:08PM 44.9933 -93.1806 23° Northeast 249 287 6,800 2,760 Climbing Minneapolis Center
09:09PM 44.7066 -92.6394 118° Southeast  Level Estimated
09:09PM 44.9733 -93.0725 105° East 286 329 9,700  Level Minneapolis Center
09:10PM 44.6448 -92.5076 123° Southeast  Level FlightAware Approximate
09:10PM 44.9283 -92.9775 124° Southeast 291 335 11,600  Level Minneapolis Center
09:11PM 44.6048 -92.3506 117° Southeast  Level FlightAware Approximate
09:11PM 44.8703 -92.8481 122° Southeast 323 372 14,200  Level Minneapolis Center
09:12PM 44.5579 -92.2217 117° Southeast  Level FlightAware Approximate
09:12PM 44.8197 -92.7242 120° Southeast 364 419 15,100  Level Minneapolis Center
09:13PM 44.7664 -92.5944 120° Southeast 381 438 16,000 1,020 Climbing Minneapolis Center
09:14PM 44.7003 -92.4350 120° Southeast 392 451 17,300 1,140 Climbing Minneapolis Center
09:15PM 44.6447 -92.3033 121° Southeast 393 452 18,400 1,260 Climbing Minneapolis Center
09:16PM 44.6017 -92.1569 112° Southeast 409 471 20,000 1,140 Climbing Minneapolis Center
09:17PM 44.5792 -91.9981 101° East 416 479 20,800 780 Climbing Minneapolis Center
09:18PM 44.5761 -91.8308 91° East 431 496 21,700 840 Climbing Minneapolis Center
09:19PM 44.5894 -91.6567 84° East 446 513 22,600 780 Climbing Minneapolis Center
09:20PM 44.6047 -91.4819 83° East 453 521 23,400 720 Climbing Minneapolis Center
09:21PM 44.6164 -91.3078 85° East 451 519 24,100 720 Climbing Minneapolis Center
09:22PM 44.6308 -91.0978 84° East 453 521 24,900 840 Climbing Minneapolis Center
09:23PM 44.6453 -90.9197 83° East 459 528 25,900 1,020 Climbing Minneapolis Center
09:24PM 44.6186 -90.7578 103° East 439 505 27,000 480 Climbing Minneapolis Center
09:25PM 44.5492 -90.6294 127° Southeast 426 490 27,000  Level Minneapolis Center
09:26PM 44.4653 -90.5042 133° Southeast 437 503 27,000  Level Minneapolis Center
09:27PM 44.3756 -90.3419 128° Southeast 455 524 27,000  Level Minneapolis Center
09:28PM 44.3083 -90.1875 121° Southeast 464 534 27,000  Level Minneapolis Center
09:29PM 44.2450 -90.0361 120° Southeast 456 525 27,000  Level Minneapolis Center
09:31PM 44.1692 -89.8586 121° Southeast 455 524 27,000  Level Minneapolis Center
09:32PM 44.1056 -89.7108 121° Southeast 448 516 27,000  Level Minneapolis Center
09:33PM 44.0422 -89.5617 121° Southeast 447 514 27,000  Level Minneapolis Center
09:34PM 43.9783 -89.4139 121° Southeast 446 513 27,000  Level Minneapolis Center
09:35PM 43.9256 -89.2897 121° Southeast 447 514 27,000  Level Minneapolis Center
09:36PM 43.8400 -89.0947 121° Southeast 443 510 27,000  Level Minneapolis Center
09:37PM 43.7767 -88.9497 121° Southeast 440 506 27,000  Level Minneapolis Center
09:38PM 43.7128 -88.8044 121° Southeast 441 507 27,000  Level Minneapolis Center
09:39PM 43.6492 -88.6597 121° Southeast 439 505 27,000  Level Minneapolis Center
09:39PM 43.6067 -88.5625 121° Southeast 440 506 27,000  Level Chicago Center
09:40PM 43.5400 -88.4128 122° Southeast 446 513 27,000  Level Chicago Center
09:41PM 43.4725 -88.2642 122° Southeast 446 513 27,000  Level Chicago Center
09:42PM 43.4064 -88.1186 122° Southeast 446 513 27,000  Level Chicago Center
09:43PM 43.3408 -87.9744 122° Southeast 445 512 27,000  Level Chicago Center
09:44PM 43.2753 -87.8300 122° Southeast 444 511 27,000  Level Chicago Center
09:45PM 43.2092 -87.6869 122° Southeast 444 511 27,000  Level Chicago Center
09:47PM 43.1442 -87.5428 122° Southeast 444 511 27,000  Level Chicago Center
09:48PM 43.0772 -87.4000 123° Southeast 445 512 27,000  Level Chicago Center
09:49PM 43.0083 -87.2497 122° Southeast 443 510 27,000  Level Chicago Center
09:50PM 42.9417 -87.1094 123° Southeast 441 507 27,000 -540 Level Chicago Center
09:51PM 42.8758 -86.9689 123° Southeast 443 510 25,900 -1,740 Descending Chicago Center
09:52PM 42.8128 -86.8339 122° Southeast 429 494 23,500 -2,580 Descending Chicago Center
09:53PM 42.7414 -86.6836 123° Southeast 399 459 20,700 -2,220 Descending Chicago Center
09:54PM 42.6861 -86.5675 123° Southeast 374 430 19,000 -1,860 Descending Chicago Center
09:55PM 42.6317 -86.4525 123° Southeast 367 422 17,000 -1,980 Descending Chicago Center
09:56PM 42.5753 -86.3367 123° Southeast 369 425 15,000 -1,920 Descending Chicago Center
09:57PM 42.5214 -86.2214 122° Southeast 367 422 13,100 -1,920 Descending Chicago Center
09:58PM 42.4683 -86.1131 124° Southeast 351 404 11,100 -1,080 Descending Chicago Center
09:59PM 42.4281 -86.0158 119° Southeast 300 345 10,900 -660 Descending Chicago Center
10:00PM 42.3917 -85.9253 119° Southeast 277 319 9,800 -2,400 Descending Chicago Center
10:01PM 42.3681 -85.8028 105° East 296 341 6,100 -2,880 Descending Chicago Center
10:02PM 42.3711 -85.7006 88° East 282 325 4,000 -1,800 Descending Chicago Center
10:03PM 42.3706 -85.6111 90° East 261 300 2,500 -840 Descending Chicago Center
10:04PM 42.3367 -85.5753 142° Southeast 168 193 2,400 -120 Descending Chicago Center